createdAt,value
2016-12-31T00:00:08.225Z,50.56
2016-12-31T00:00:48.870Z,50.27
2016-12-31T00:01:29.496Z,50.37
2016-12-31T00:02:10.133Z,50.08
2016-12-31T00:02:50.769Z,50.27
2016-12-31T00:03:31.402Z,50.27
2016-12-31T00:04:12.072Z,50.08
2016-12-31T00:04:52.710Z,50.08
2016-12-31T00:05:33.340Z,50.37
2016-12-31T00:06:13.981Z,50.37
2016-12-31T00:06:54.605Z,50.17
2016-12-31T00:07:35.241Z,49.98
2016-12-31T00:08:15.870Z,50.17
2016-12-31T00:08:56.612Z,50.27
2016-12-31T00:09:37.256Z,50.37
2016-12-31T00:10:17.899Z,49.98
2016-12-31T00:10:58.528Z,50.37
2016-12-31T00:11:39.179Z,50.56
2016-12-31T00:12:19.819Z,50.46
2016-12-31T00:13:00.444Z,50.46
2016-12-31T00:13:41.110Z,50.17
2016-12-31T00:14:21.742Z,50.17
2016-12-31T00:15:02.442Z,50.17
2016-12-31T00:15:43.079Z,50.08
2016-12-31T00:16:23.710Z,50.17
2016-12-31T00:17:04.376Z,50.46
2016-12-31T00:17:45.016Z,50.27
2016-12-31T00:18:25.654Z,50.27
2016-12-31T00:19:06.382Z,50.27
2016-12-31T00:19:47.000Z,50.27
2016-12-31T00:20:27.652Z,50.17
2016-12-31T00:21:08.363Z,50.17
2016-12-31T00:21:49.017Z,50.37
2016-12-31T00:22:29.678Z,50.37
2016-12-31T00:23:10.424Z,50.37
2016-12-31T00:23:51.149Z,50.27
2016-12-31T00:24:31.790Z,50.17
2016-12-31T00:25:12.431Z,50.17
2016-12-31T00:25:53.126Z,50.08
2016-12-31T00:26:33.769Z,50.17
2016-12-31T00:27:14.403Z,50.08
2016-12-31T00:27:55.104Z,50.08
2016-12-31T00:28:35.754Z,50.17
2016-12-31T00:29:16.388Z,50.27
2016-12-31T00:29:57.109Z,50.17
2016-12-31T00:30:37.748Z,50.17
2016-12-31T00:31:18.388Z,50.27
2016-12-31T00:31:59.033Z,50.37
2016-12-31T00:32:39.675Z,50.37
2016-12-31T00:33:20.313Z,50.27
2016-12-31T00:34:00.981Z,50.37
2016-12-31T00:34:41.623Z,50.37
2016-12-31T00:35:22.274Z,50.37
2016-12-31T00:36:02.893Z,50.17
2016-12-31T00:36:43.526Z,50.08
2016-12-31T00:37:24.195Z,50.08
2016-12-31T00:38:04.807Z,50.17
2016-12-31T00:38:45.444Z,50.17
2016-12-31T00:39:26.077Z,50.17
2016-12-31T00:40:06.707Z,50.17
2016-12-31T00:40:47.381Z,50.17
2016-12-31T00:41:28.010Z,50.37
2016-12-31T00:42:08.663Z,50.17
2016-12-31T00:42:49.310Z,50.17
2016-12-31T00:43:29.984Z,50.17
2016-12-31T00:44:10.594Z,50.27
2016-12-31T00:44:51.217Z,50.08
2016-12-31T00:45:31.849Z,50.17
2016-12-31T00:46:12.485Z,50.37
2016-12-31T00:46:53.119Z,50.17
2016-12-31T00:47:33.761Z,50.27
2016-12-31T00:48:14.394Z,50.17
2016-12-31T00:48:55.080Z,50.08
2016-12-31T00:49:35.714Z,50.17
2016-12-31T00:50:16.358Z,50.37
2016-12-31T00:50:57.028Z,50.17
2016-12-31T00:51:37.699Z,50.17
2016-12-31T00:52:18.351Z,50.17
2016-12-31T00:52:58.992Z,50.08
2016-12-31T00:53:39.617Z,50.08
2016-12-31T00:54:20.249Z,50.37
2016-12-31T00:55:00.890Z,50.17
2016-12-31T00:55:41.526Z,50.27
2016-12-31T00:56:22.164Z,50.17
2016-12-31T00:57:02.812Z,50.27
2016-12-31T00:57:43.475Z,50.17
2016-12-31T00:58:24.129Z,50.27
2016-12-31T00:59:04.777Z,50.27
2016-12-31T00:59:45.402Z,50.46
2016-12-31T01:00:26.038Z,50.08
2016-12-31T01:01:06.665Z,50.08
2016-12-31T01:01:47.298Z,50.17
2016-12-31T01:02:27.921Z,50.27
2016-12-31T01:03:08.581Z,50.17
2016-12-31T01:03:49.222Z,50.17
2016-12-31T01:04:29.856Z,50.27
2016-12-31T01:05:10.534Z,50.27
2016-12-31T01:05:51.170Z,50.46
2016-12-31T01:06:31.823Z,50.37
2016-12-31T01:07:12.478Z,50.08
2016-12-31T01:07:53.108Z,50.46
2016-12-31T01:08:33.750Z,50.37
2016-12-31T01:09:14.395Z,50.08
2016-12-31T01:09:55.037Z,50.46
2016-12-31T01:10:35.674Z,50.08
2016-12-31T01:11:16.323Z,50.17
2016-12-31T01:11:56.947Z,50.17
2016-12-31T01:12:37.590Z,50.08
2016-12-31T01:13:18.270Z,50.08
2016-12-31T01:13:58.896Z,50.27
2016-12-31T01:14:39.551Z,50.08
2016-12-31T01:15:20.177Z,50.37
2016-12-31T01:16:00.804Z,50.08
2016-12-31T01:16:41.440Z,50.17
2016-12-31T01:17:22.063Z,50.37
2016-12-31T01:18:02.692Z,50.08
2016-12-31T01:18:43.362Z,50.17
2016-12-31T01:19:24.028Z,50.37
2016-12-31T01:20:04.670Z,50.27
2016-12-31T01:20:45.313Z,49.98
2016-12-31T01:21:25.942Z,50.17
2016-12-31T01:22:06.579Z,50.17
2016-12-31T01:22:47.206Z,50.37
2016-12-31T01:23:27.835Z,50.37
2016-12-31T01:24:08.486Z,50.17
2016-12-31T01:24:49.123Z,50.17
2016-12-31T01:25:29.756Z,50.17
2016-12-31T01:26:10.383Z,50.37
2016-12-31T01:26:51.048Z,50.27
2016-12-31T01:27:31.694Z,50.27
2016-12-31T01:28:12.382Z,50.27
2016-12-31T01:28:53.008Z,50.27
2016-12-31T01:29:33.638Z,50.37
2016-12-31T01:30:14.307Z,50.08
2016-12-31T01:30:54.958Z,50.17
2016-12-31T01:31:35.593Z,50.17
2016-12-31T01:32:16.275Z,50.17
2016-12-31T01:32:56.908Z,50.37
2016-12-31T01:33:37.540Z,50.17
2016-12-31T01:34:18.206Z,50.27
2016-12-31T01:34:58.838Z,50.27
2016-12-31T01:35:39.467Z,50.37
2016-12-31T01:36:20.117Z,50.46
2016-12-31T01:37:01.554Z,50.27
2016-12-31T01:37:42.192Z,50.27
2016-12-31T01:38:22.820Z,50.17
2016-12-31T01:39:03.447Z,50.17
2016-12-31T01:39:44.082Z,50.27
2016-12-31T01:40:24.728Z,50.37
2016-12-31T01:41:05.354Z,50.37
2016-12-31T01:41:46.008Z,50.37
2016-12-31T01:42:26.638Z,50.27
2016-12-31T01:43:07.272Z,50.27
2016-12-31T01:43:47.962Z,50.27
2016-12-31T01:44:28.591Z,50.37
2016-12-31T01:45:09.222Z,50.37
2016-12-31T01:45:49.862Z,50.37
2016-12-31T01:46:30.491Z,50.17
2016-12-31T01:47:11.127Z,50.46
2016-12-31T01:47:51.759Z,50.27
2016-12-31T01:48:32.401Z,50.27
2016-12-31T01:49:13.029Z,50.56
2016-12-31T01:49:53.719Z,50.08
2016-12-31T01:50:34.363Z,50.27
2016-12-31T01:51:14.987Z,50.17
2016-12-31T01:51:55.719Z,49.88
2016-12-31T01:52:36.337Z,50.65
2016-12-31T01:53:16.965Z,49.79
2016-12-31T01:53:57.590Z,49.88
2016-12-31T01:54:38.279Z,49.79
2016-12-31T01:55:18.945Z,49.98
2016-12-31T01:55:59.709Z,50.08
2016-12-31T01:56:40.329Z,50.27
2016-12-31T01:57:21.048Z,50.08
2016-12-31T01:58:01.599Z,50.37
2016-12-31T01:58:42.249Z,50.46
2016-12-31T01:59:22.885Z,50.24
2016-12-31T02:00:03.517Z,50.37
2016-12-31T02:00:44.176Z,50.27
2016-12-31T02:01:24.853Z,50.37
2016-12-31T02:02:05.454Z,50.65
2016-12-31T02:02:46.107Z,50.56
2016-12-31T02:03:26.800Z,50.65
2016-12-31T02:04:07.373Z,49.79
2016-12-31T02:04:48.005Z,49.88
2016-12-31T02:05:28.630Z,49.69
2016-12-31T02:06:09.273Z,49.88
2016-12-31T02:06:49.899Z,49.98
2016-12-31T02:07:30.532Z,50.65
2016-12-31T02:08:11.162Z,49.79
2016-12-31T02:08:51.803Z,50.65
2016-12-31T02:09:32.428Z,50.37
2016-12-31T02:10:13.067Z,50.34
2016-12-31T02:10:53.693Z,50.34
2016-12-31T02:11:34.330Z,50.24
2016-12-31T02:12:14.959Z,50.24
2016-12-31T02:12:55.594Z,50.34
2016-12-31T02:13:36.227Z,50.37
2016-12-31T02:14:16.861Z,50.05
2016-12-31T02:14:57.495Z,50.15
2016-12-31T02:15:38.124Z,50.27
2016-12-31T02:16:18.760Z,50.17
2016-12-31T02:16:59.393Z,50.65
2016-12-31T02:17:40.041Z,50.05
2016-12-31T02:18:20.676Z,50.53
2016-12-31T02:19:01.314Z,50.27
2016-12-31T02:19:41.936Z,50.24
2016-12-31T02:20:22.556Z,50.34
2016-12-31T02:21:03.181Z,50.34
2016-12-31T02:21:43.809Z,50.43
2016-12-31T02:22:24.541Z,49.98
2016-12-31T02:23:05.163Z,50.53
2016-12-31T02:23:45.787Z,50.53
2016-12-31T02:24:26.491Z,50.34
2016-12-31T02:25:07.122Z,50.24
2016-12-31T02:25:47.744Z,50.24
2016-12-31T02:26:28.399Z,50.15
2016-12-31T02:27:09.052Z,50.63
2016-12-31T02:27:49.686Z,49.96
2016-12-31T02:28:30.359Z,49.79
2016-12-31T02:29:10.996Z,49.98
2016-12-31T02:29:51.626Z,49.86
2016-12-31T02:30:32.251Z,49.86
2016-12-31T02:31:12.879Z,49.76
2016-12-31T02:31:53.516Z,49.79
2016-12-31T02:32:34.154Z,49.57
2016-12-31T02:33:14.806Z,49.57
2016-12-31T02:33:55.441Z,49.38
2016-12-31T02:34:36.065Z,49.57
2016-12-31T02:35:16.739Z,49.38
2016-12-31T02:35:57.367Z,49.57
2016-12-31T02:36:38.005Z,49.48
2016-12-31T02:37:18.648Z,49.86
2016-12-31T02:37:59.294Z,49.96
2016-12-31T02:38:39.927Z,49.57
2016-12-31T02:39:20.612Z,49.48
2016-12-31T02:40:01.249Z,49.38
2016-12-31T02:40:41.889Z,49.41
2016-12-31T02:41:22.518Z,49.48
2016-12-31T02:42:03.149Z,49.38
2016-12-31T02:42:43.778Z,49.29
2016-12-31T02:43:24.415Z,49.48
2016-12-31T02:44:05.041Z,49.38
2016-12-31T02:44:45.672Z,49.31
2016-12-31T02:45:26.299Z,49.38
2016-12-31T02:46:06.927Z,49.38
2016-12-31T02:46:47.578Z,49.1
2016-12-31T02:47:28.231Z,49.1
2016-12-31T02:48:08.865Z,49.1
2016-12-31T02:48:49.495Z,49
2016-12-31T02:49:30.145Z,49.29
2016-12-31T02:50:10.769Z,49.19
2016-12-31T02:50:51.429Z,49.19
2016-12-31T02:51:32.085Z,49.29
2016-12-31T02:52:12.708Z,49.38
2016-12-31T02:52:53.347Z,49.57
2016-12-31T02:53:34.035Z,49.57
2016-12-31T02:54:14.670Z,49.76
2016-12-31T02:54:55.342Z,49.19
2016-12-31T02:55:36.002Z,49.29
2016-12-31T02:56:16.630Z,49.57
2016-12-31T02:56:57.315Z,49.19
2016-12-31T02:57:37.984Z,49.19
2016-12-31T02:58:18.629Z,49.29
2016-12-31T02:58:59.262Z,49.19
2016-12-31T02:59:39.903Z,49.19
2016-12-31T03:00:20.542Z,49.29
2016-12-31T03:01:01.171Z,49.1
2016-12-31T03:01:41.802Z,48.9
2016-12-31T03:02:22.439Z,49.29
2016-12-31T03:03:03.064Z,49
2016-12-31T03:03:43.689Z,49.19
2016-12-31T03:04:24.356Z,48.9
2016-12-31T03:05:04.954Z,49.19
2016-12-31T03:05:45.586Z,49.19
2016-12-31T03:06:26.213Z,49.1
2016-12-31T03:07:06.865Z,49.19
2016-12-31T03:07:47.503Z,49.19
2016-12-31T03:08:28.152Z,49.1
2016-12-31T03:09:08.760Z,48.8
2016-12-31T03:09:49.378Z,49.19
2016-12-31T03:10:30.018Z,49.29
2016-12-31T03:11:10.650Z,49
2016-12-31T03:11:51.277Z,49.1
2016-12-31T03:12:31.902Z,49.1
2016-12-31T03:13:12.539Z,49.19
2016-12-31T03:13:53.177Z,49.19
2016-12-31T03:14:33.811Z,49.1
2016-12-31T03:15:14.465Z,49
2016-12-31T03:15:55.092Z,49
2016-12-31T03:16:35.747Z,49
2016-12-31T03:17:16.381Z,49
2016-12-31T03:17:57.010Z,49
2016-12-31T03:18:37.644Z,48.9
2016-12-31T03:19:18.274Z,48.8
2016-12-31T03:19:58.947Z,48.9
2016-12-31T03:20:39.576Z,48.9
2016-12-31T03:21:20.218Z,49
2016-12-31T03:22:00.845Z,48.9
2016-12-31T03:22:41.474Z,49
2016-12-31T03:23:22.099Z,49
2016-12-31T03:24:02.730Z,48.9
2016-12-31T03:24:43.357Z,49
2016-12-31T03:25:23.989Z,48.9
2016-12-31T03:26:04.625Z,48.9
2016-12-31T03:26:45.245Z,49
2016-12-31T03:27:25.892Z,49
2016-12-31T03:28:06.518Z,49
2016-12-31T03:28:47.152Z,49
2016-12-31T03:29:27.800Z,48.8
2016-12-31T03:30:08.439Z,48.9
2016-12-31T03:30:49.067Z,49
2016-12-31T03:31:29.723Z,48.8
2016-12-31T03:32:10.356Z,48.8
2016-12-31T03:32:50.992Z,49.1
2016-12-31T03:33:31.669Z,48.71
2016-12-31T03:34:12.293Z,48.71
2016-12-31T03:34:52.929Z,49.19
2016-12-31T03:35:33.611Z,49
2016-12-31T03:36:14.253Z,49
2016-12-31T03:36:54.888Z,48.71
2016-12-31T03:37:35.583Z,48.61
2016-12-31T03:38:16.211Z,49
2016-12-31T03:38:56.842Z,49.19
2016-12-31T03:39:37.538Z,48.71
2016-12-31T03:40:18.166Z,48.71
2016-12-31T03:40:58.801Z,48.61
2016-12-31T03:41:39.453Z,48.52
2016-12-31T03:42:20.095Z,48.8
2016-12-31T03:43:00.727Z,48.61
2016-12-31T03:43:41.396Z,48.8
2016-12-31T03:44:22.030Z,48.52
2016-12-31T03:45:02.761Z,48.71
2016-12-31T03:45:43.292Z,48.8
2016-12-31T03:46:23.912Z,48.61
2016-12-31T03:47:04.531Z,48.71
2016-12-31T03:47:45.193Z,48.8
2016-12-31T03:48:25.820Z,48.61
2016-12-31T03:49:06.466Z,48.61
2016-12-31T03:49:47.092Z,48.61
2016-12-31T03:50:27.750Z,48.9
2016-12-31T03:51:08.380Z,48.9
2016-12-31T03:51:49.008Z,48.8
2016-12-31T03:52:29.692Z,48.71
2016-12-31T03:53:10.346Z,48.71
2016-12-31T03:53:50.988Z,48.71
2016-12-31T03:54:31.637Z,48.9
2016-12-31T03:55:12.280Z,48.71
2016-12-31T03:55:52.888Z,48.71
2016-12-31T03:56:33.515Z,48.71
2016-12-31T03:57:14.147Z,48.8
2016-12-31T03:57:54.784Z,48.8
2016-12-31T03:58:35.415Z,48.61
2016-12-31T03:59:16.073Z,48.71
2016-12-31T03:59:56.723Z,48.71
2016-12-31T04:00:37.358Z,48.61
2016-12-31T04:01:17.989Z,48.61
2016-12-31T04:01:58.624Z,48.71
2016-12-31T04:02:39.264Z,48.8
2016-12-31T04:03:19.918Z,48.71
2016-12-31T04:04:00.551Z,48.61
2016-12-31T04:04:41.282Z,48.71
2016-12-31T04:05:21.904Z,48.71
2016-12-31T04:06:02.539Z,48.71
2016-12-31T04:06:43.188Z,48.71
2016-12-31T04:07:23.846Z,48.61
2016-12-31T04:08:04.461Z,48.71
2016-12-31T04:08:45.106Z,48.71
2016-12-31T04:09:25.740Z,48.61
2016-12-31T04:10:06.363Z,48.71
2016-12-31T04:10:47.089Z,48.61
2016-12-31T04:11:27.722Z,48.61
2016-12-31T04:12:08.354Z,48.71
2016-12-31T04:12:48.980Z,48.71
2016-12-31T04:13:29.622Z,48.61
2016-12-31T04:14:10.275Z,48.61
2016-12-31T04:14:50.978Z,48.61
2016-12-31T04:15:31.601Z,48.71
2016-12-31T04:16:12.232Z,48.9
2016-12-31T04:16:53.643Z,48.71
2016-12-31T04:17:34.274Z,48.9
2016-12-31T04:18:14.918Z,48.8
2016-12-31T04:18:55.548Z,48.61
2016-12-31T04:19:36.169Z,48.71
2016-12-31T04:20:16.792Z,48.8
2016-12-31T04:20:57.424Z,48.43
2016-12-31T04:21:38.049Z,48.43
2016-12-31T04:22:18.728Z,48.52
2016-12-31T04:22:59.353Z,48.43
2016-12-31T04:23:39.978Z,48.52
2016-12-31T04:24:20.620Z,48.61
2016-12-31T04:25:01.256Z,48.33
2016-12-31T04:25:41.905Z,48.71
2016-12-31T04:26:22.537Z,48.71
2016-12-31T04:27:03.181Z,48.61
2016-12-31T04:27:43.811Z,48.61
2016-12-31T04:28:24.441Z,48.52
2016-12-31T04:29:05.072Z,48.61
2016-12-31T04:29:45.708Z,48.43
2016-12-31T04:30:26.363Z,48.52
2016-12-31T04:31:07.034Z,48.52
2016-12-31T04:31:47.672Z,48.52
2016-12-31T04:32:28.405Z,48.43
2016-12-31T04:33:09.041Z,48.43
2016-12-31T04:33:49.662Z,48.52
2016-12-31T04:34:30.297Z,48.43
2016-12-31T04:35:10.976Z,48.43
2016-12-31T04:35:51.607Z,48.61
2016-12-31T04:36:32.238Z,48.61
2016-12-31T04:37:12.872Z,48.43
2016-12-31T04:37:53.506Z,48.43
2016-12-31T04:38:34.132Z,48.52
2016-12-31T04:39:14.821Z,48.43
2016-12-31T04:39:55.470Z,48.23
2016-12-31T04:40:36.100Z,48.33
2016-12-31T04:41:16.721Z,48.33
2016-12-31T04:41:57.359Z,48.52
2016-12-31T04:42:37.994Z,48.33
2016-12-31T04:43:18.636Z,48.33
2016-12-31T04:43:59.266Z,48.52
2016-12-31T04:44:39.915Z,48.33
2016-12-31T04:45:20.544Z,48.52
2016-12-31T04:46:01.179Z,48.43
2016-12-31T04:46:41.835Z,48.33
2016-12-31T04:47:22.485Z,48.23
2016-12-31T04:48:03.116Z,48.52
2016-12-31T04:48:43.747Z,48.52
2016-12-31T04:49:24.467Z,48.61
2016-12-31T04:50:05.096Z,48.43
2016-12-31T04:50:45.729Z,48.52
2016-12-31T04:51:26.453Z,48.43
2016-12-31T04:52:07.098Z,48.71
2016-12-31T04:52:47.737Z,48.23
2016-12-31T04:53:28.361Z,48.43
2016-12-31T04:54:08.981Z,48.61
2016-12-31T04:54:49.612Z,48.61
2016-12-31T04:55:30.308Z,48.61
2016-12-31T04:56:10.936Z,48.52
2016-12-31T04:56:51.572Z,48.59
2016-12-31T04:57:32.313Z,48.71
2016-12-31T04:58:12.955Z,48.52
2016-12-31T04:58:53.588Z,48.61
2016-12-31T04:59:34.257Z,48.61
2016-12-31T05:00:14.885Z,48.52
2016-12-31T05:00:55.529Z,48.61
2016-12-31T05:01:36.258Z,48.52
2016-12-31T05:02:16.876Z,48.52
2016-12-31T05:02:57.510Z,48.61
2016-12-31T05:03:38.173Z,48.61
2016-12-31T05:04:18.821Z,48.33
2016-12-31T05:04:59.467Z,48.52
2016-12-31T05:05:40.104Z,48.43
2016-12-31T05:06:20.726Z,48.52
2016-12-31T05:07:02.160Z,48.52
2016-12-31T05:07:42.789Z,48.52
2016-12-31T05:08:23.410Z,48.52
2016-12-31T05:09:04.036Z,48.43
2016-12-31T05:09:44.661Z,48.52
2016-12-31T05:10:25.344Z,48.52
2016-12-31T05:11:05.973Z,48.61
2016-12-31T05:11:46.602Z,48.52
2016-12-31T05:12:27.304Z,48.43
2016-12-31T05:13:07.975Z,48.33
2016-12-31T05:13:48.608Z,48.23
2016-12-31T05:14:29.272Z,48.23
2016-12-31T05:15:09.898Z,48.43
2016-12-31T05:15:50.530Z,48.43
2016-12-31T05:16:31.278Z,48.23
2016-12-31T05:17:11.903Z,48.52
2016-12-31T05:17:52.532Z,48.33
2016-12-31T05:18:33.187Z,48.4
2016-12-31T05:19:13.833Z,48.52
2016-12-31T05:19:54.467Z,48.52
2016-12-31T05:20:35.119Z,48.52
2016-12-31T05:21:15.757Z,48.43
2016-12-31T05:21:56.377Z,48.61
2016-12-31T05:22:37.063Z,48.71
2016-12-31T05:23:17.703Z,48.43
2016-12-31T05:23:58.327Z,48.43
2016-12-31T05:24:38.960Z,48.33
2016-12-31T05:25:19.592Z,48.52
2016-12-31T05:26:00.246Z,48.43
2016-12-31T05:26:40.878Z,48.43
2016-12-31T05:27:21.509Z,48.52
2016-12-31T05:28:02.140Z,48.59
2016-12-31T05:28:42.777Z,48.71
2016-12-31T05:29:23.412Z,48.43
2016-12-31T05:30:04.040Z,48.71
2016-12-31T05:30:44.682Z,48.52
2016-12-31T05:31:25.334Z,48.4
2016-12-31T05:32:05.960Z,48.71
2016-12-31T05:32:46.595Z,48.61
2016-12-31T05:33:27.242Z,48.61
2016-12-31T05:34:07.873Z,48.61
2016-12-31T05:34:48.503Z,48.52
2016-12-31T05:35:29.129Z,48.52
2016-12-31T05:36:09.754Z,48.69
2016-12-31T05:36:50.382Z,48.61
2016-12-31T05:37:31.014Z,48.43
2016-12-31T05:38:11.732Z,48.69
2016-12-31T05:38:52.368Z,48.69
2016-12-31T05:39:32.994Z,48.78
2016-12-31T05:40:13.675Z,48.71
2016-12-31T05:40:54.406Z,48.52
2016-12-31T05:41:35.040Z,48.69
2016-12-31T05:42:15.684Z,48.69
2016-12-31T05:42:56.386Z,48.69
2016-12-31T05:43:37.022Z,48.88
2016-12-31T05:44:17.659Z,48.88
2016-12-31T05:44:58.318Z,48.59
2016-12-31T05:45:38.949Z,48.69
2016-12-31T05:46:19.578Z,48.49
2016-12-31T05:47:00.227Z,48.59
2016-12-31T05:47:40.856Z,48.43
2016-12-31T05:48:21.498Z,48.69
2016-12-31T05:49:02.133Z,48.61
2016-12-31T05:49:42.788Z,48.59
2016-12-31T05:50:23.425Z,48.49
2016-12-31T05:51:04.061Z,48.43
2016-12-31T05:51:44.770Z,48.3
2016-12-31T05:52:25.401Z,48.59
2016-12-31T05:53:06.030Z,48.3
2016-12-31T05:53:46.675Z,48.21
2016-12-31T05:54:27.311Z,48.3
2016-12-31T05:55:07.942Z,48.52
2016-12-31T05:55:48.576Z,48.49
2016-12-31T05:56:29.215Z,48.49
2016-12-31T05:57:09.854Z,48.21
2016-12-31T05:57:50.498Z,48.21
2016-12-31T05:58:31.129Z,48.21
2016-12-31T05:59:11.755Z,48.49
2016-12-31T05:59:52.399Z,48.49
2016-12-31T06:00:33.033Z,48.3
2016-12-31T06:01:13.661Z,48.33
2016-12-31T06:01:54.287Z,48.3
2016-12-31T06:02:34.932Z,48.4
2016-12-31T06:03:15.556Z,48.21
2016-12-31T06:03:56.178Z,48.3
2016-12-31T06:04:36.813Z,48.3
2016-12-31T06:05:17.478Z,48.3
2016-12-31T06:05:58.115Z,48.23
2016-12-31T06:06:38.738Z,48.21
2016-12-31T06:07:19.435Z,48.33
2016-12-31T06:08:00.064Z,48.3
2016-12-31T06:08:40.696Z,48.3
2016-12-31T06:09:21.431Z,48.21
2016-12-31T06:10:02.056Z,48.3
2016-12-31T06:10:42.683Z,48.49
2016-12-31T06:11:23.317Z,48.59
2016-12-31T06:12:03.948Z,48.3
2016-12-31T06:12:44.608Z,48.4
2016-12-31T06:13:25.231Z,48.3
2016-12-31T06:14:05.853Z,48.3
2016-12-31T06:14:46.491Z,48.21
2016-12-31T06:15:27.114Z,48.21
2016-12-31T06:16:07.757Z,48.21
2016-12-31T06:16:48.405Z,48.49
2016-12-31T06:17:29.074Z,48.4
2016-12-31T06:18:09.707Z,48.49
2016-12-31T06:18:50.331Z,48.3
2016-12-31T06:19:30.959Z,48.33
2016-12-31T06:20:11.587Z,48.3
2016-12-31T06:20:52.226Z,48.21
2016-12-31T06:21:32.872Z,48.21
2016-12-31T06:22:13.549Z,48.21
2016-12-31T06:22:54.192Z,48.49
2016-12-31T06:23:34.810Z,48.49
2016-12-31T06:24:15.478Z,48.49
2016-12-31T06:24:56.109Z,48.3
2016-12-31T06:25:36.746Z,48.4
2016-12-31T06:26:17.406Z,48.49
2016-12-31T06:26:58.043Z,48.49
2016-12-31T06:27:38.667Z,48.4
2016-12-31T06:28:19.344Z,48.3
2016-12-31T06:28:59.972Z,48.11
2016-12-31T06:29:40.607Z,48.21
2016-12-31T06:30:21.319Z,48.21
2016-12-31T06:31:01.945Z,48.3
2016-12-31T06:31:42.574Z,48.21
2016-12-31T06:32:23.223Z,48.21
2016-12-31T06:33:03.865Z,48.3
2016-12-31T06:33:44.490Z,48.3
2016-12-31T06:34:25.130Z,48.3
2016-12-31T06:35:05.771Z,48.21
2016-12-31T06:35:46.402Z,48.3
2016-12-31T06:36:27.032Z,48.21
2016-12-31T06:37:07.677Z,48.3
2016-12-31T06:37:48.299Z,48.21
2016-12-31T06:38:28.972Z,48.3
2016-12-31T06:39:09.615Z,48.21
2016-12-31T06:39:50.262Z,48.3
2016-12-31T06:40:30.903Z,48.21
2016-12-31T06:41:11.555Z,48.49
2016-12-31T06:41:52.184Z,48.49
2016-12-31T06:42:32.818Z,48.49
2016-12-31T06:43:13.456Z,48.49
2016-12-31T06:43:54.086Z,48.59
2016-12-31T06:44:34.734Z,48.4
2016-12-31T06:45:15.372Z,48.49
2016-12-31T06:45:56.008Z,48.59
2016-12-31T06:46:36.644Z,48.49
2016-12-31T06:47:17.279Z,48.49
2016-12-31T06:47:57.917Z,48.59
2016-12-31T06:48:38.551Z,48.59
2016-12-31T06:49:19.178Z,48.59
2016-12-31T06:49:59.811Z,48.59
2016-12-31T06:50:40.444Z,48.49
2016-12-31T06:51:21.069Z,48.69
2016-12-31T06:52:01.715Z,48.4
2016-12-31T06:52:42.368Z,48.59
2016-12-31T06:53:23.009Z,48.49
2016-12-31T06:54:03.787Z,48.49
2016-12-31T06:54:44.465Z,48.4
2016-12-31T06:55:25.084Z,48.49
2016-12-31T06:56:05.727Z,48.78
2016-12-31T06:56:46.357Z,48.78
2016-12-31T06:57:26.990Z,48.88
2016-12-31T06:58:07.628Z,48.69
2016-12-31T06:58:48.266Z,48.69
2016-12-31T06:59:28.901Z,48.59
2016-12-31T07:00:09.542Z,48.88
2016-12-31T07:00:50.177Z,48.59
2016-12-31T07:01:30.807Z,48.59
2016-12-31T07:02:11.435Z,48.69
2016-12-31T07:02:52.063Z,48.59
2016-12-31T07:03:32.698Z,48.69
2016-12-31T07:04:13.324Z,48.59
2016-12-31T07:04:53.986Z,48.69
2016-12-31T07:05:34.615Z,48.69
2016-12-31T07:06:15.250Z,48.49
2016-12-31T07:06:55.879Z,48.69
2016-12-31T07:07:36.517Z,48.3
2016-12-31T07:08:17.165Z,48.69
2016-12-31T07:08:57.797Z,48.59
2016-12-31T07:09:38.434Z,48.69
2016-12-31T07:10:19.074Z,48.4
2016-12-31T07:10:59.696Z,48.49
2016-12-31T07:11:40.327Z,48.4
2016-12-31T07:12:20.959Z,48.59
2016-12-31T07:13:01.598Z,48.59
2016-12-31T07:13:42.234Z,48.69
2016-12-31T07:14:22.859Z,48.4
2016-12-31T07:15:03.542Z,48.88
2016-12-31T07:15:44.164Z,48.78
2016-12-31T07:16:24.790Z,48.69
2016-12-31T07:17:05.414Z,48.59
2016-12-31T07:17:46.048Z,48.4
2016-12-31T07:18:26.676Z,48.59
2016-12-31T07:19:07.300Z,48.69
2016-12-31T07:19:47.921Z,48.88
2016-12-31T07:20:28.566Z,48.78
2016-12-31T07:21:09.201Z,48.59
2016-12-31T07:21:49.824Z,48.78
2016-12-31T07:22:30.446Z,48.69
2016-12-31T07:23:11.066Z,48.78
2016-12-31T07:23:51.688Z,48.78
2016-12-31T07:24:32.422Z,48.88
2016-12-31T07:25:13.047Z,48.88
2016-12-31T07:25:53.694Z,48.88
2016-12-31T07:26:34.345Z,48.4
2016-12-31T07:27:14.992Z,48.49
2016-12-31T07:27:55.611Z,48.59
2016-12-31T07:28:36.306Z,48.49
2016-12-31T07:29:16.948Z,48.69
2016-12-31T07:29:57.625Z,48.78
2016-12-31T07:30:38.832Z,48.69
2016-12-31T07:31:19.465Z,48.49
2016-12-31T07:32:00.092Z,48.69
2016-12-31T07:32:40.735Z,48.4
2016-12-31T07:33:21.388Z,48.59
2016-12-31T07:34:02.152Z,48.49
2016-12-31T07:34:42.793Z,48.49
2016-12-31T07:35:23.441Z,48.49
2016-12-31T07:36:04.061Z,48.59
2016-12-31T07:36:44.692Z,48.69
2016-12-31T07:37:25.319Z,48.88
2016-12-31T07:38:05.949Z,48.88
2016-12-31T07:38:46.585Z,48.78
2016-12-31T07:39:27.209Z,48.78
2016-12-31T07:40:07.862Z,48.88
2016-12-31T07:40:48.527Z,48.69
2016-12-31T07:41:29.155Z,48.69
2016-12-31T07:42:09.787Z,48.59
2016-12-31T07:42:50.457Z,48.78
2016-12-31T07:43:31.085Z,48.4
2016-12-31T07:44:11.726Z,48.4
2016-12-31T07:44:52.347Z,48.78
2016-12-31T07:45:32.986Z,48.88
2016-12-31T07:46:13.603Z,48.69
2016-12-31T07:46:54.241Z,48.69
2016-12-31T07:47:34.873Z,48.49
2016-12-31T07:48:15.509Z,48.97
2016-12-31T07:48:56.139Z,48.88
2016-12-31T07:49:36.784Z,48.97
2016-12-31T07:50:17.408Z,48.59
2016-12-31T07:50:58.074Z,48.59
2016-12-31T07:51:38.712Z,48.59
2016-12-31T07:52:19.355Z,48.88
2016-12-31T07:53:00.002Z,48.69
2016-12-31T07:53:40.630Z,48.78
2016-12-31T07:54:21.274Z,48.59
2016-12-31T07:55:01.906Z,48.69
2016-12-31T07:55:42.538Z,48.88
2016-12-31T07:56:23.186Z,48.59
2016-12-31T07:57:03.823Z,48.59
2016-12-31T07:57:44.454Z,48.78
2016-12-31T07:58:25.074Z,48.69
2016-12-31T07:59:05.704Z,48.88
2016-12-31T07:59:46.361Z,48.78
2016-12-31T08:00:27.001Z,49.07
2016-12-31T08:01:07.660Z,49.16
2016-12-31T08:01:48.299Z,49.07
2016-12-31T08:02:28.919Z,48.97
2016-12-31T08:03:09.553Z,48.69
2016-12-31T08:03:50.177Z,48.59
2016-12-31T08:04:30.862Z,48.69
2016-12-31T08:05:11.482Z,48.78
2016-12-31T08:05:52.115Z,48.78
2016-12-31T08:06:32.774Z,48.69
2016-12-31T08:07:13.429Z,48.69
2016-12-31T08:07:54.091Z,48.88
2016-12-31T08:08:34.732Z,48.78
2016-12-31T08:09:15.371Z,48.59
2016-12-31T08:09:56.015Z,48.59
2016-12-31T08:10:36.694Z,48.69
2016-12-31T08:11:17.321Z,48.88
2016-12-31T08:11:57.948Z,48.88
2016-12-31T08:12:38.600Z,48.59
2016-12-31T08:13:19.231Z,48.59
2016-12-31T08:13:59.864Z,48.69
2016-12-31T08:14:40.504Z,48.59
2016-12-31T08:15:21.137Z,48.59
2016-12-31T08:16:01.764Z,48.69
2016-12-31T08:16:42.477Z,48.88
2016-12-31T08:17:23.130Z,48.88
2016-12-31T08:18:03.828Z,48.88
2016-12-31T08:18:44.473Z,48.88
2016-12-31T08:19:25.093Z,48.78
2016-12-31T08:20:05.746Z,48.97
2016-12-31T08:20:46.409Z,48.97
2016-12-31T08:21:27.048Z,48.97
2016-12-31T08:22:07.727Z,48.88
2016-12-31T08:22:48.348Z,48.97
2016-12-31T08:23:28.988Z,48.97
2016-12-31T08:24:09.671Z,48.88
2016-12-31T08:24:50.299Z,49.07
2016-12-31T08:25:30.925Z,48.97
2016-12-31T08:26:11.551Z,48.97
2016-12-31T08:26:52.179Z,48.78
2016-12-31T08:27:32.805Z,48.97
2016-12-31T08:28:13.433Z,48.97
2016-12-31T08:28:54.068Z,48.78
2016-12-31T08:29:34.693Z,48.78
2016-12-31T08:30:15.331Z,48.88
2016-12-31T08:30:55.959Z,48.97
2016-12-31T08:31:36.609Z,48.78
2016-12-31T08:32:17.241Z,48.78
2016-12-31T08:32:57.882Z,48.78
2016-12-31T08:33:38.537Z,48.88
2016-12-31T08:34:19.163Z,49.07
2016-12-31T08:34:59.797Z,48.97
2016-12-31T08:35:40.427Z,48.69
2016-12-31T08:36:21.046Z,48.97
2016-12-31T08:37:01.672Z,48.97
2016-12-31T08:37:42.377Z,48.59
2016-12-31T08:38:23.004Z,48.69
2016-12-31T08:39:03.630Z,48.88
2016-12-31T08:39:44.314Z,48.88
2016-12-31T08:40:24.965Z,48.69
2016-12-31T08:41:05.610Z,48.78
2016-12-31T08:41:46.340Z,48.88
2016-12-31T08:42:26.973Z,48.88
2016-12-31T08:43:07.601Z,48.78
2016-12-31T08:43:48.255Z,48.88
2016-12-31T08:44:28.894Z,48.78
2016-12-31T08:45:09.528Z,49.16
2016-12-31T08:45:50.254Z,49.16
2016-12-31T08:46:30.900Z,48.88